METAR v bližini

 

LJMB - Maribor Edvarda Rusjana, Slovenia
Oddaljenost od postaje: SV 30,9km
Podatki zajeti: 13/04/2021 00:00
Rahlo dežuje, Oblačno
Rahlo dežuje, Oblačno
 Veter iz smeri S
Veter: S 24 km/h
Temperatura: 4°C
Občutek mraza zaradi vetra: -1°C
Rosišče: 3°C
Vlažnost: 93%
Tlak: 1021 hPa
Stanje: Rahlo dežuje
Oblačnost: Oblačno
Vidljivost: 10 km
Podrobnosti o oblakih: Delno oblačno 732 m
Oblačno 1585 m
2021/04/12 22:00 LJMB 122200Z AUTO 01013KT 9999 -RA SCT024/// OVC052/// 04/03 Q1021 RERA
LJLJ - Ljubljana Brnik, Slovenia
Oddaljenost od postaje: S 103km
Podatki zajeti: 13/04/2021 00:30
Padavine, Oblačno
Padavine, Oblačno
 Veter iz smeri SSZ
Veter: SSZ 11 km/h
Temperatura: 5°C
Občutek mraza zaradi vetra: 2°C
Rosišče: 2°C
Vlažnost: 81%
Tlak: 1019 hPa
Stanje: Padavine
Oblačnost: Oblačno
Vidljivost: 7 km
Podrobnosti o oblakih: Rahlo oblačno 91 m
Pretežno oblačno 701 m
Oblačno 1067 m
2021/04/12 22:30 LJLJ 122230Z 34006KT 290V040 7000 RA FEW003 BKN023 OVC035 05/02 Q1019 NOSIG
 
LJPZ - Portorož, Slovenia
Oddaljenost od postaje: SSZ 224km
Podatki zajeti: 13/04/2021 00:30
Močno dežuje, Oblačno
Močno dežuje, Oblačno
 Veter iz smeri VJV
Veter: VJV 13 km/h
Temperatura: 13°C
Rosišče: 11°C
Vlažnost: 88%
Tlak: 1014 hPa
Stanje: Močno dežuje
Oblačnost: Oblačno
Vidljivost: 7 km
Podrobnosti o oblakih: Rahlo oblačno 1219 m
Pretežno oblačno 1402 m
Oblačno 1829 m
2021/04/12 22:30 LJPZ 122230Z AUTO 12007KT 7000 +RA FEW040/// BKN046/// OVC060/// 13/11 Q1014
LJCE - Cerklje, Slovenia
Oddaljenost od postaje: VSV 83,9km
Podatki zajeti: 13/04/2021 00:30
Padavine, Oblačno
Padavine, Oblačno
 Veter iz smeri spremenljiv
Veter: spremenljiv 0 km/h
Temperatura: 6°C
Rosišče: 4°C
Vlažnost: 87%
Tlak: 1020 hPa
Stanje: Padavine
Oblačnost: Oblačno
Vidljivost: 10 km
Podrobnosti o oblakih: Oblačno 610 m
2021/04/12 22:30 LJCE 122230Z AUTO /////KT 9999 RA OVC020/// 06/04 Q1020
 
LOWG - Graz, Austria
Oddaljenost od postaje: SSZ 99,6km
Podatki zajeti: 13/04/2021 00:20
Pretežno oblačno
Pretežno oblačno
 Veter iz smeri SSZ
Veter: SSZ 22 km/h
Temperatura: 5°C
Občutek mraza zaradi vetra: 1°C
Rosišče: -1°C
Vlažnost: 66%
Tlak: 1021 hPa
Oblačnost: Pretežno oblačno
Vidljivost: 10 km
Podrobnosti o oblakih: Rahlo oblačno 1463 m
Pretežno oblačno 1524 m
2021/04/12 22:20 LOWG 122220Z AUTO 34012KT 9999 FEW048 BKN050 05/M01 Q1021
LOWK - Klagenfurt, Austria
Oddaljenost od postaje: SZ 121km
Podatki zajeti: 13/04/2021 00:20
Pretežno oblačno
Pretežno oblačno
 Veter iz smeri JZ
Veter: JZ 9 km/h
Temperatura: 4°C
Občutek mraza zaradi vetra: 2°C
Rosišče: 1°C
Vlažnost: 81%
Tlak: 1022 hPa
Oblačnost: Pretežno oblačno
Vidljivost: 10 km
Podrobnosti o oblakih: Rahlo oblačno 1341 m
Pretežno oblačno 1524 m
2021/04/12 22:20 LOWK 122220Z AUTO 22005KT 180V250 9999 FEW044 BKN050 04/01 Q1022
 
LDRI - Rijeka, Croatia
Oddaljenost od postaje: SZ 243km
Podatki zajeti: 13/04/2021 00:30
Rahlo dežuje, Pretežno oblačno
Rahlo dežuje, Pretežno oblačno
 Veter iz smeri S
Veter: S 11 km/h
Temperatura: 12°C
Rosišče: 10°C
Vlažnost: 88%
Tlak: 1015 hPa
Stanje: Rahlo dežuje
Oblačnost: Pretežno oblačno
Vidljivost: 10 km
Podrobnosti o oblakih: Delno oblačno 457 m
Pretežno oblačno 1219 m
2021/04/12 22:30 LDRI 122230Z 01006KT 9999 -RA SCT015 BKN040 12/10 Q1015
LIPQ - Ronchi, Italy
Oddaljenost od postaje: VJV 224km
Podatki zajeti: 13/04/2021 00:20
Močno dežuje, Oblačno
Močno dežuje, Oblačno
 Veter iz smeri V
Veter: V 11 km/h
Temperatura: 12°C
Rosišče: 12°C
Vlažnost: 100%
Tlak: 1015 hPa
Stanje: Močno dežuje
Oblačnost: Oblačno
Vidljivost: 6 km
Podrobnosti o oblakih: Oblačno 91 m
2021/04/12 22:20 LIPQ 122220Z AUTO 10006KT 6000 +RA OVC003/// 12/12 Q1015
 
LDZA - Zagreb, Croatia
Oddaljenost od postaje: JJV 143km
Podatki zajeti: 13/04/2021 00:30
Rahlo dežuje, Oblačno
Rahlo dežuje, Oblačno
 Veter iz smeri SV
Veter: SV 19 km/h
Temperatura: 7°C
Občutek mraza zaradi vetra: 4°C
Rosišče: 5°C
Vlažnost: 87%
Tlak: 1020 hPa
Stanje: Rahlo dežuje
Oblačnost: Oblačno
Vidljivost: 10 km
Podrobnosti o oblakih: Pretežno oblačno 457 m
Oblačno 1372 m
2021/04/12 22:30 LDZA 122230Z 05010KT 010V100 9999 -RA BKN015 OVC045 07/05 Q1020 NOSIG
LIVT - Trieste, Italy
Oddaljenost od postaje: ZSZ 250km
Podatki zajeti: 12/04/2021 19:55
Ni posodobljen
Rahlo dežuje, Oblačno
Rahlo dežuje, Oblačno
 Veter iz smeri S
Veter: S 6 km/h
Temperatura: 13°C
Rosišče: 12°C
Vlažnost: 94%
Tlak: 1015 hPa
Stanje: Rahlo dežuje
Oblačnost: Oblačno
Vidljivost: 10 km
Podrobnosti o oblakih: Oblačno 762 m
2021/04/12 17:55 LIVT 121755Z 01003KT 9999 -RA OVC025 13/12 Q1015 RMK OVC QUK / QUL / VIS MAR 10 KM VIS MIN 9999
 
LIPA - Aviano, Italy
Oddaljenost od postaje: S 310km
Podatki zajeti: 09/04/2021 19:55
Ni posodobljen
Pretežno oblačno
Pretežno oblačno
 Veter iz smeri JJZ
Veter: JJZ 11 km/h
Temperatura: 11°C
Rosišče: 5°C
Vlažnost: 67%
Tlak: 1023 hPa
Oblačnost: Pretežno oblačno
Vidljivost: 10 km
Podrobnosti o oblakih: Pretežno oblačno 1829 m
2021/04/09 17:55 LIPA 091755Z 21006KT 9999 BKN060 11/05 Q1023 RMK BKN VIS MIN 9999 WIND THR05 /////KT WIND THR23 /////KT A3023 BLU
LDPL - Pula, Croatia
Oddaljenost od postaje: SSV 304km
Podatki zajeti: 13/04/2021 00:30
Rahlo dežuje, Oblačno
Rahlo dežuje, Oblačno
 Veter iz smeri VJV
Veter: VJV 11 km/h
Temperatura: 12°C
Rosišče: 11°C
Vlažnost: 94%
Tlak: 1015 hPa
Stanje: Rahlo dežuje
Oblačnost: Oblačno
Vidljivost: 10 km
Podrobnosti o oblakih: Pretežno oblačno 305 m
Oblačno 1067 m
2021/04/12 22:30 LDPL 122230Z 11006KT 9999 -RA BKN010 OVC035 12/11 Q1015